x

New Dungeness - 17 Nm Ne Of Port Angeles, Wa (46088) Wave Buoy

3:20pm - Sat 6th Feb 2016 All times are PST. -8 hours from GMT.

  • Sig Wave height 0.7ft
  • Average Period 4s
  • Wind
    7mph
  • Sea Temp 48°f
  • Air Temp 46°f
  • Sea Pressure 1031mb
  • New Dungeness - 17 Nm Ne Of Port Angeles, Wa
  • New Dungeness - 17 Nm Ne Of Port Angeles, Wa

More Historic Weather Station data

Upgrade to MSW Pro to gain access to the past 30 days of data for over 8000 Wavebouys and Weather Stations around the globe.

Join Pro

Comparision Forecast

View Surf forecast
   
Sat 02/06 3:20pm 0.7ft  -  4s 7
mph
1031mb 48f 46f
2:50pm 0.7ft  -  5s 7
mph
1030.9mb 48f 46f
2:20pm 0.7ft  -  4s 4 7 mph 1031.3mb 48f 46f
1:50pm 0.7ft  -  4s 7 9 mph 1030.8mb 48f 46f
1:20pm 1ft 13s 4s 4
mph
1031mb 48f 46f
12:50pm 1ft 3s 3s 4
mph
1031.1mb 48f 46f
12:20pm 1ft 3s 3s 4
mph
1030.7mb 47f 46f
11:50am 1.3ft 3s 3s 7
mph
1031.2mb 47f 46f
11:20am 1.6ft 3s 3s 11
mph
1031.2mb 47f 46f
10:50am 1.6ft 3s 4s 11 13 mph 1031mb 47f 46f
10:20am 2ft 4s 4s 13
mph
1030.5mb 47f 46f
9:50am 1.6ft 4s 4s 13 16 mph 1030.2mb 47f 46f
9:20am 2ft 4s 4s 13 16 mph 1030mb 47f 46f
8:50am 2ft 4s 4s 16 20 mph 1029.8mb 47f 46f
8:20am 2ft 4s 4s 18 22 mph 1029.4mb 47f 46f
7:50am 2ft 4s 4s 16 20 mph 1028.7mb 47f 47f
7:20am 2.5ft 4s 4s 13 16 mph 1028.4mb 47f 47f
6:50am 2.5ft 4s 4s 20 27 mph 1027.7mb 47f 47f
6:20am 2.5ft 4s 4s 20 22 mph 1027.3mb 47f 47f
5:50am 2.5ft 4s 4s 22 25 mph 1026.5mb 47f 47f
5:20am 2.5ft 4s 4s 20 25 mph 1026mb 47f 47f
4:50am 2.5ft 4s 3s 25 29 mph 1025.4mb 47f 46f
4:20am 2.5ft 3s 3s 25 29 mph 1024.6mb 47f 46f
3:50am 3ft 4s 3s 25 29 mph 1024.1mb 47f 47f
3:20am 3ft 4s 3s 22 27 mph 1024mb 47f 46f
2:50am 3.5ft 4s 4s 25 29 mph 1023.9mb 47f 47f
2:20am 3ft 4s 3s 29 34 mph 1023.2mb 48f 47f
1:50am 3ft 4s 4s 20 22 mph 1023.1mb 48f 47f
1:20am 4ft 4s 4s 20 25 mph 1022.5mb 48f 48f
12:50am 4.5ft 4s 4s 22 29 mph 1022.3mb 48f 48f
12:20am 3.5ft 5s 4s 27 34 mph 1021.8mb 48f 48f
Fri 02/05 11:50pm 4.5ft 5s 4s 27 31 mph 1021.1mb 48f 48f
11:20pm 5ft 5s 4s 34 38 mph 1019.2mb 48f 48f
10:50pm 5ft 6s 4s 29 36 mph 1019mb 48f 48f
10:20pm 4.5ft 6s 4s 27 31 mph 1019.3mb 48f 47f
9:50pm 5ft 5s 5s 27 34 mph 1018.4mb 48f 47f
9:20pm 5ft 5s 5s 25 31 mph 1018.2mb 48f 47f
8:50pm 3.5ft 5s 4s 36 45 mph 1017mb 48f 47f
8:20pm 2ft 4s 3s 31 38 mph 1016.4mb 48f 47f
7:50pm 2ft 4s 4s 11 16 mph 1014.4mb 48f 51f
7:20pm 2.5ft 4s 4s 7 9 mph 1013.6mb 48f 50f
6:50pm 2.5ft 4s 4s 7 9 mph 1013.3mb 48f 51f
6:20pm 2.5ft 4s 4s 18 25 mph 1012.6mb 48f 50f
5:50pm 2.5ft 4s 4s 16 20 mph 1011.4mb 48f 51f
5:20pm 2.5ft 5s 4s 16 20 mph 1012.1mb 48f 50f
4:50pm 3ft 5s 4s 9 11 mph 1013.2mb 48f 50f
4:20pm 4.5ft 5s 4s 11 20 mph 1012.8mb 48f 54f
3:50pm 4.5ft 5s 4s 18 27 mph 1011.3mb 48f 54f
3:20pm 4.5ft 5s 4s 29 36 mph 1010.3mb 48f 54f
2:50pm 4ft 5s 4s 25 31 mph 1010.9mb 48f 54f
2:20pm 3.5ft 5s 4s 22 31 mph 1011.7mb 48f 53f
1:50pm 3.5ft 5s 4s 20 25 mph 1011.8mb 48f 52f
1:20pm 4ft 5s 4s 22 27 mph 1012.4mb 48f 53f
12:50pm 4ft 5s 4s 20 27 mph 1013.3mb 48f 53f
12:20pm 4ft 5s 4s 25 29 mph 1014.2mb 48f 54f
11:50am 3.5ft 5s 4s 16 20 mph 1015.3mb 48f 53f
11:20am 3ft 4s 4s 25 29 mph 1015.1mb 48f 53f
10:50am 3ft 5s 4s 18 25 mph 1015.7mb 48f 52f
10:20am 1.6ft 3s 3s 20 25 mph 1016mb 48f 51f
9:50am 1.6ft 4s 3s 13 18 mph 1017.1mb 48f 49f
9:20am 1.6ft 4s 3s 20 22 mph 1017.5mb 48f 50f
8:50am 1.3ft 4s 3s 18 22 mph 1018.1mb 48f 49f
8:20am 1.6ft 4s 4s 11 13 mph 1019mb 48f 47f
7:50am 2.5ft 5s 4s 9 11 mph 1019.3mb 48f 48f
7:20am 2.5ft 4s 4s 2 4 mph 1019.5mb 48f 48f
6:50am 2ft 4s 3s 4 7 mph 1019.9mb 48f 48f
6:20am 3ft 5s 4s 7 9 mph 1020mb 48f 48f
5:50am 3ft 4s 4s 18 22 mph 1020mb 48f 50f
5:20am 3ft 4s 4s 22 29 mph 1020.3mb 48f 50f
4:50am 3ft 4s 4s 22 27 mph 1020.8mb 48f 50f
4:20am 2.5ft 4s 4s 20 25 mph 1021.1mb 48f 49f
3:50am 1.6ft 4s 4s 9 11 mph 1022.8mb 48f 48f
3:20am 1.3ft 4s 4s 4 7 mph 1023.1mb 48f 47f
2:50am 1.3ft 4s 4s 7
mph
1023.3mb 48f 47f
2:20am 1.3ft 4s 4s 4 7 mph 1023.8mb 48f 47f
1:50am 1.3ft 4s 4s 4
mph
1023.9mb 48f 47f
1:20am 1.3ft 4s 4s 2 4 mph 1023.8mb 48f 47f
12:50am 1.3ft 4s 4s 7 9 mph 1024.1mb 48f 48f
12:20am 1.6ft 4s 4s 9 13 mph 1023.9mb 48f 48f
Thu 02/04 11:50pm 1.6ft 4s 4s 9 11 mph 1024.2mb 48f 49f
11:20pm 2ft 4s 4s 13 16 mph 1024.2mb 48f 49f
10:50pm 2ft 4s 3s 18 20 mph 1024.2mb 48f 49f
10:20pm 2ft 4s 3s 18 22 mph 1024.2mb 47f 48f
9:50pm 2.5ft 4s 3s 20 22 mph 1024.4mb 48f 48f
9:20pm 2.5ft 4s 3s 18 22 mph 1025.4mb 48f 47f
8:50pm 3ft 4s 3s 20 25 mph 1025.2mb 48f 47f
8:20pm 3ft 4s 3s 22 29 mph 1025.3mb 48f 47f
7:50pm 3ft 4s 3s 22 25 mph 1025.6mb 48f 47f
7:20pm 3ft 4s 3s 22 27 mph 1026.1mb 48f 47f
6:50pm 2.5ft 4s 3s 25 29 mph 1025.7mb 48f 47f
6:20pm 2.5ft 4s 3s 25 29 mph 1025.6mb 48f 47f
5:50pm 2.5ft 3s 3s 25 29 mph 1025.7mb 48f 47f
5:20pm 2ft 3s 3s 22 27 mph 1026.1mb 48f 47f
4:50pm 1.6ft 3s 3s 20 25 mph 1026.6mb 48f 47f
4:20pm 1.6ft 3s 3s 16 20 mph 1026.9mb 48f 47f
3:50pm 1.6ft 3s 3s 16 18 mph 1026.8mb 48f 47f
3:20pm 1.3ft 3s 3s 16 18 mph 1026.7mb 47f 47f
2:50pm 1.3ft 3s 3s 13 16 mph 1026.9mb 47f 47f
2:20pm 1.6ft 3s 3s 11 13 mph 1027.1mb 47f 47f
1:50pm 1.6ft 3s 3s 16 18 mph 1026.8mb 47f 47f
1:20pm 1.6ft 3s 3s 16 18 mph 1026.6mb 47f 46f
12:50pm 1.6ft 3s 3s 16 20 mph 1026.5mb 47f 46f
12:20pm 1.3ft 3s 3s 16 18 mph 1026.3mb 47f 46f
11:50am 1.3ft 3s 3s 16 18 mph 1026.1mb 47f 46f
11:20am 1.3ft 3s 3s 16 20 mph 1025.8mb 47f 46f
10:50am 1.3ft 3s 3s 9 11 mph 1026mb 47f 46f
10:20am 1.3ft 3s 3s 16 20 mph 1025.6mb 47f 46f
9:50am 1.3ft 3s 3s 18 20 mph 1025.3mb 47f 46f
9:20am 1.3ft 3s 3s 16 18 mph 1025.2mb 47f 46f
8:50am 1ft 2s 3s 16 18 mph 1024.8mb 47f 46f
8:20am 1ft 3s 3s 13 18 mph 1024.5mb 47f 45f
7:50am 1ft 2s 3s 13 16 mph 1024.2mb 47f 45f
7:20am 1ft 3s 3s 13 16 mph 1023.6mb 47f 45f
6:50am 1ft 4s 3s 11 13 mph 1023.3mb 47f 45f
6:20am 1ft 4s 3s 11 13 mph 1023mb 47f 46f
5:50am 0.7ft  -  3s 7 9 mph 1022.7mb 47f 47f
5:20am 0.7ft  -  3s 7 11 mph 1022.3mb 47f 46f
4:50am 0.7ft  -  3s 7 9 mph 1021.9mb 47f 46f
4:20am 0.7ft  -  3s 9 13 mph 1021.5mb 47f 46f
3:50am 0.7ft  -  3s 9 13 mph 1020.8mb 47f 46f
3:20am 0.7ft  -  3s 9 11 mph 1020.1mb 47f 46f
2:50am  -   -   -  2
mph
1019.4mb 47f 46f
2:20am 1ft 3s 3s 4
mph
1018.4mb 47f 46f
1:50am  -   -   -  7 9 mph 1018mb 47f 45f
1:20am 1ft 3s 3s 2 4 mph 1017.9mb 48f 45f
12:50am 1ft 4s 3s 4 7 mph 1017.5mb 48f 45f
12:20am 1.3ft 3s 3s 4 7 mph 1017.7mb 48f 45f
Wed 02/03 11:50pm 1.3ft 3s 3s 11 16 mph 1017.3mb 48f 45f
11:20pm 1.3ft 3s 3s 16 20 mph 1016.8mb 48f 47f
10:50pm 1.3ft 4s 3s 16 18 mph 1017mb 48f 46f
10:20pm 1.6ft 3s 3s 13 18 mph 1016.8mb 48f 47f
9:50pm 2ft 4s 3s 9 13 mph 1016.7mb 48f 47f
9:20pm 2.5ft 4s 4s 7 9 mph 1016.2mb 48f 47f
8:50pm 2.5ft 4s 4s 11 13 mph 1015.5mb 48f 46f
8:20pm 2.5ft 4s 4s 16 20 mph 1015mb 48f 46f
7:50pm 3ft 5s 4s 18 22 mph 1014.5mb 48f 46f
7:20pm 3.5ft 5s 4s 25 29 mph 1013.8mb 48f 46f
6:50pm 5ft 5s 4s 13 20 mph 1012.4mb 48f 46f
6:20pm 5ft 5s 4s 29 36 mph 1011mb 48f 45f
5:50pm 5ft 5s 4s 31 40 mph 1010.1mb 48f 45f
5:20pm 5ft 5s 4s 36 45 mph 1009.7mb 48f 45f
4:50pm 6ft 5s 5s 36 45 mph 1009.6mb 48f 45f
4:20pm 6ft 6s 5s 36 45 mph 1009.8mb 48f 45f
3:50pm 6ft 6s 5s 36 45 mph 1010.2mb 47f 46f
3:20pm 5ft 5s 4s 34 40 mph 1010.5mb 47f 46f
2:50pm 5ft 5s 4s 29 36 mph 1011.5mb 47f 47f
2:20pm 5ft 6s 4s 29 36 mph 1011.8mb 47f 47f
1:50pm 5ft 6s 5s 29 34 mph 1012.2mb 47f 47f
1:20pm 4.5ft 5s 4s 31 38 mph 1012.6mb 47f 47f
12:50pm 4ft 5s 4s 31 38 mph 1012.7mb 47f 47f
12:20pm 4ft 5s 4s 29 36 mph 1013.2mb 47f 47f
11:50am 3.5ft 5s 4s 27 31 mph 1013.9mb 47f 47f
11:20am 3.5ft 5s 4s 27 31 mph 1014.6mb 47f 46f
10:50am 2.5ft 4s 4s 20 25 mph 1015.5mb 47f 46f
10:20am 2.5ft 4s 4s 25 31 mph 1015.5mb 47f 46f
9:50am 2.5ft 4s 4s 25 27 mph 1016.2mb 47f 46f
9:20am 2.5ft 4s 4s 22 25 mph 1016.4mb 47f 45f
8:50am 2.5ft 4s 3s 18 22 mph 1017mb 47f 45f
8:20am 2ft 4s 3s 22 25 mph 1016.9mb 47f 45f
7:50am 1.6ft 4s 3s 20 22 mph 1017.3mb 47f 45f
7:20am 1.6ft 3s 3s 9
mph
1018.2mb 47f 45f
6:50am 1.6ft 3s 3s 13 16 mph 1018.1mb 47f 44f
6:20am 1.6ft 4s 3s 11 13 mph 1018.7mb 47f 44f
5:50am 1.6ft 4s 3s 9 11 mph 1019mb 47f 44f
5:20am 1.6ft 4s 3s 9
mph
1018.9mb 47f 44f
4:50am 2ft 4s 3s 11 13 mph 1019.5mb 47f 44f
4:20am 2ft 4s 3s 13 18 mph 1019.7mb 47f 44f
3:50am 2ft 4s 3s 13 16 mph 1020.1mb 47f 44f
3:20am 2.5ft 4s 4s 13 16 mph 1020.1mb 47f 44f
2:50am 2.5ft 4s 4s 11 16 mph 1019.9mb 47f 44f
2:20am 2ft 4s 3s 9 11 mph 1020.3mb 47f 44f
1:50am 1.6ft 4s 3s 13 16 mph 1020.1mb 47f 44f
1:20am 1.6ft 4s 3s 13 16 mph 1020.2mb 48f 45f
12:50am 1.3ft 4s 3s 13 18 mph 1020.6mb 48f 45f